NZCH/CHC METAR and TAF weather

Enter ICAO airport designator
Station Type Date Time Source
NZCH METAR 2020/04/06 10:30 UTC NOAA

NZCH 061030Z AUTO 09011KT 9999 NCD 15/13 Q1013 NOSIG


Station Type Date Time Source
NZCH Decoded METAR 2020/04/06 10:30 UTC NOAA

Christchurch, New Zealand (NZCH) 43-29S 172-33E 30M
Apr 06, 2020 - 06:30 AM EDT / 2020.04.06 1030 UTC
Wind: from the E (090 degrees) at 13 MPH (11 KT):0
Visibility: greater than 7 mile(s):0
Temperature: 59 F (15 C)
Dew Point: 55 F (13 C)
Relative Humidity: 87%
Pressure (altimeter): 29.91 in. Hg (1013 hPa)
ob: NZCH 061030Z AUTO 09011KT 9999 NCD 15/13 Q1013 NOSIG
cycle: 10

Station Type Date Time Source
NZCH TAF 2020/04/06 06:06 UTC NOAA

TAF NZCH 060502Z 0606/0706 08012KT 9999 FEW070
BECMG 0702/0704 VRB02KT

Example: see airport list